sensor_id;sensor_type;location;lat;lon;timestamp;temperature;humidity
5899;DHT22;2975;50.956;6.962;2024-03-23T09:15:05;10.70;99.70
5899;DHT22;2975;50.956;6.962;2024-03-23T09:17:30;10.60;99.90
5899;DHT22;2975;50.956;6.962;2024-03-23T09:19:56;10.40;99.90
5899;DHT22;2975;50.956;6.962;2024-03-23T09:22:22;10.30;99.90
5899;DHT22;2975;50.956;6.962;2024-03-23T09:24:49;10.20;99.90
5899;DHT22;2975;50.956;6.962;2024-03-23T09:27:14;10.00;99.90
5899;DHT22;2975;50.956;6.962;2024-03-23T09:29:41;9.70;99.90
5899;DHT22;2975;50.956;6.962;2024-03-23T09:32:07;9.40;99.90
5899;DHT22;2975;50.956;6.962;2024-03-23T09:34:34;9.20;99.90
5899;DHT22;2975;50.956;6.962;2024-03-23T09:36:59;9.10;99.90
5899;DHT22;2975;50.956;6.962;2024-03-23T09:39:25;9.10;99.90
5899;DHT22;2975;50.956;6.962;2024-03-23T09:41:50;9.20;99.90
5899;DHT22;2975;50.956;6.962;2024-03-23T09:44:21;9.50;99.90
5899;DHT22;2975;50.956;6.962;2024-03-23T09:46:47;10.00;99.90
5899;DHT22;2975;50.956;6.962;2024-03-23T09:49:13;10.10;98.60
5899;DHT22;2975;50.956;6.962;2024-03-23T09:51:39;10.20;96.60
5899;DHT22;2975;50.956;6.962;2024-03-23T09:54:04;10.20;96.00
5899;DHT22;2975;50.956;6.962;2024-03-23T09:56:30;10.40;96.80
5899;DHT22;2975;50.956;6.962;2024-03-23T09:59:01;10.60;95.70
5899;DHT22;2975;50.956;6.962;2024-03-23T10:01:34;11.00;95.70
5899;DHT22;2975;50.956;6.962;2024-03-23T10:04:01;11.10;94.40
5899;DHT22;2975;50.956;6.962;2024-03-23T10:06:26;11.20;94.20
5899;DHT22;2975;50.956;6.962;2024-03-23T10:08:53;11.30;93.70
5899;DHT22;2975;50.956;6.962;2024-03-23T10:11:20;10.90;91.90
5899;DHT22;2975;50.956;6.962;2024-03-23T10:13:47;10.70;92.10
5899;DHT22;2975;50.956;6.962;2024-03-23T10:16:21;10.30;92.10
5899;DHT22;2975;50.956;6.962;2024-03-23T10:18:48;10.20;92.80
5899;DHT22;2975;50.956;6.962;2024-03-23T10:21:15;9.90;94.00
5899;DHT22;2975;50.956;6.962;2024-03-23T10:23:42;9.70;95.00
5899;DHT22;2975;50.956;6.962;2024-03-23T10:26:24;9.70;95.40
5899;DHT22;2975;50.956;6.962;2024-03-23T10:28:56;9.60;96.00
5899;DHT22;2975;50.956;6.962;2024-03-23T10:31:31;9.70;96.00
5899;DHT22;2975;50.956;6.962;2024-03-23T10:33:57;9.90;96.10
5899;DHT22;2975;50.956;6.962;2024-03-23T10:36:23;10.10;95.20
5899;DHT22;2975;50.956;6.962;2024-03-23T10:38:53;10.10;94.10
5899;DHT22;2975;50.956;6.962;2024-03-23T10:41:19;10.10;94.40
5899;DHT22;2975;50.956;6.962;2024-03-23T10:43:46;10.20;94.10
5899;DHT22;2975;50.956;6.962;2024-03-23T10:46:13;10.20;94.80
5899;DHT22;2975;50.956;6.962;2024-03-23T10:48:39;10.40;94.70
5899;DHT22;2975;50.956;6.962;2024-03-23T10:51:08;10.40;94.60
5899;DHT22;2975;50.956;6.962;2024-03-23T10:53:35;10.40;94.90
5899;DHT22;2975;50.956;6.962;2024-03-23T10:56:04;10.40;95.40
5899;DHT22;2975;50.956;6.962;2024-03-23T10:58:42;10.30;95.70
5899;DHT22;2975;50.956;6.962;2024-03-23T11:01:12;10.20;94.90
5899;DHT22;2975;50.956;6.962;2024-03-23T11:03:40;9.80;93.90
5899;DHT22;2975;50.956;6.962;2024-03-23T11:06:09;9.50;94.40
5899;DHT22;2975;50.956;6.962;2024-03-23T11:08:39;9.40;95.80
5899;DHT22;2975;50.956;6.962;2024-03-23T11:11:18;9.30;96.70
5899;DHT22;2975;50.956;6.962;2024-03-23T11:13:48;9.20;98.10
5899;DHT22;2975;50.956;6.962;2024-03-23T11:18:50;9.30;99.90
5899;DHT22;2975;50.956;6.962;2024-03-23T11:21:53;9.90;97.40
5899;DHT22;2975;50.956;6.962;2024-03-23T11:24:22;10.60;97.10
5899;DHT22;2975;50.956;6.962;2024-03-23T11:26:50;11.00;97.50
5899;DHT22;2975;50.956;6.962;2024-03-23T11:29:17;10.00;98.70
5899;DHT22;2975;50.956;6.962;2024-03-23T11:31:50;8.90;99.90
5899;DHT22;2975;50.956;6.962;2024-03-23T11:34:22;8.20;99.90
5899;DHT22;2975;50.956;6.962;2024-03-23T11:36:48;7.90;99.90
5899;DHT22;2975;50.956;6.962;2024-03-23T11:41:48;8.00;99.90
5899;DHT22;2975;50.956;6.962;2024-03-23T11:44:22;8.20;99.90
5899;DHT22;2975;50.956;6.962;2024-03-23T11:46:49;8.10;99.90
5899;DHT22;2975;50.956;6.962;2024-03-23T11:49:29;8.30;99.90
5899;DHT22;2975;50.956;6.962;2024-03-23T11:51:56;8.30;99.90
5899;DHT22;2975;50.956;6.962;2024-03-23T11:54:24;8.50;99.90
5899;DHT22;2975;50.956;6.962;2024-03-23T11:56:57;8.50;99.90
5899;DHT22;2975;50.956;6.962;2024-03-23T11:59:42;8.70;99.90
5899;DHT22;2975;50.956;6.962;2024-03-23T12:02:13;8.90;99.90
5899;DHT22;2975;50.956;6.962;2024-03-23T12:04:42;9.00;99.90
5899;DHT22;2975;50.956;6.962;2024-03-23T12:07:11;9.00;99.90
5899;DHT22;2975;50.956;6.962;2024-03-23T12:09:37;9.10;99.90
5899;DHT22;2975;50.956;6.962;2024-03-23T12:12:18;9.10;99.90
5899;DHT22;2975;50.956;6.962;2024-03-23T12:15:03;9.10;99.90
5899;DHT22;2975;50.956;6.962;2024-03-23T12:17:36;9.10;99.90
5899;DHT22;2975;50.956;6.962;2024-03-23T12:20:02;9.00;99.90
5899;DHT22;2975;50.956;6.962;2024-03-23T12:22:33;8.90;99.90
5899;DHT22;2975;50.956;6.962;2024-03-23T12:25:00;9.30;99.90
5899;DHT22;2975;50.956;6.962;2024-03-23T12:27:26;9.30;99.90
5899;DHT22;2975;50.956;6.962;2024-03-23T12:29:51;9.20;99.90
5899;DHT22;2975;50.956;6.962;2024-03-23T12:32:18;8.90;99.90
5899;DHT22;2975;50.956;6.962;2024-03-23T12:34:44;9.00;99.90
5899;DHT22;2975;50.956;6.962;2024-03-23T12:37:10;8.70;99.90
5899;DHT22;2975;50.956;6.962;2024-03-23T12:39:35;8.40;99.90
5899;DHT22;2975;50.956;6.962;2024-03-23T12:42:05;8.60;99.90
5899;DHT22;2975;50.956;6.962;2024-03-23T12:44:31;8.00;99.90
5899;DHT22;2975;50.956;6.962;2024-03-23T12:46:57;8.20;99.90
5899;DHT22;2975;50.956;6.962;2024-03-23T12:49:24;8.20;99.90
5899;DHT22;2975;50.956;6.962;2024-03-23T12:51:55;8.40;99.90
5899;DHT22;2975;50.956;6.962;2024-03-23T12:54:22;8.50;99.90
5899;DHT22;2975;50.956;6.962;2024-03-23T12:56:49;8.70;99.90
5899;DHT22;2975;50.956;6.962;2024-03-23T12:59:14;8.70;99.90
5899;DHT22;2975;50.956;6.962;2024-03-23T13:01:42;8.50;99.90
5899;DHT22;2975;50.956;6.962;2024-03-23T13:04:09;8.50;99.90
5899;DHT22;2975;50.956;6.962;2024-03-23T13:06:36;8.50;99.90
5899;DHT22;2975;50.956;6.962;2024-03-23T13:09:02;8.80;99.90
5899;DHT22;2975;50.956;6.962;2024-03-23T13:11:29;8.90;99.90
5899;DHT22;2975;50.956;6.962;2024-03-23T13:13:55;8.70;99.80
5899;DHT22;2975;50.956;6.962;2024-03-23T13:16:20;8.60;98.90
5899;DHT22;2975;50.956;6.962;2024-03-23T13:18:46;8.60;99.60
5899;DHT22;2975;50.956;6.962;2024-03-23T13:21:13;8.60;99.90
5899;DHT22;2975;50.956;6.962;2024-03-23T13:23:39;8.70;99.90
5899;DHT22;2975;50.956;6.962;2024-03-23T13:26:07;8.80;99.60
5899;DHT22;2975;50.956;6.962;2024-03-23T13:28:33;8.90;99.90
5899;DHT22;2975;50.956;6.962;2024-03-23T13:30:59;9.20;99.90
5899;DHT22;2975;50.956;6.962;2024-03-23T13:33:31;9.40;99.10
5899;DHT22;2975;50.956;6.962;2024-03-23T13:36:00;9.60;99.20
5899;DHT22;2975;50.956;6.962;2024-03-23T13:38:26;9.80;98.30
5899;DHT22;2975;50.956;6.962;2024-03-23T13:40:52;10.10;96.90
5899;DHT22;2975;50.956;6.962;2024-03-23T13:43:19;10.40;97.00
5899;DHT22;2975;50.956;6.962;2024-03-23T13:45:46;10.70;94.10
5899;DHT22;2975;50.956;6.962;2024-03-23T13:48:12;10.80;93.50
5899;DHT22;2975;50.956;6.962;2024-03-23T13:50:37;10.70;93.30
5899;DHT22;2975;50.956;6.962;2024-03-23T13:53:03;10.60;93.00
5899;DHT22;2975;50.956;6.962;2024-03-23T13:55:29;10.40;93.40
5899;DHT22;2975;50.956;6.962;2024-03-23T13:57:54;10.50;94.20
5899;DHT22;2975;50.956;6.962;2024-03-23T14:00:20;10.30;94.30
5899;DHT22;2975;50.956;6.962;2024-03-23T14:02:45;10.20;94.80
5899;DHT22;2975;50.956;6.962;2024-03-23T14:05:11;9.90;93.30
5899;DHT22;2975;50.956;6.962;2024-03-23T14:07:37;9.60;93.50
5899;DHT22;2975;50.956;6.962;2024-03-23T14:10:03;9.50;92.80
5899;DHT22;2975;50.956;6.962;2024-03-23T14:12:36;9.20;93.10
5899;DHT22;2975;50.956;6.962;2024-03-23T14:15:05;9.00;93.80
5899;DHT22;2975;50.956;6.962;2024-03-23T14:17:31;8.80;93.50
5899;DHT22;2975;50.956;6.962;2024-03-23T14:19:57;9.00;93.80
5899;DHT22;2975;50.956;6.962;2024-03-23T14:22:29;9.20;93.20
5899;DHT22;2975;50.956;6.962;2024-03-23T14:24:54;9.40;92.60
5899;DHT22;2975;50.956;6.962;2024-03-23T14:27:20;9.50;92.30
5899;DHT22;2975;50.956;6.962;2024-03-23T14:29:47;9.50;91.80
5899;DHT22;2975;50.956;6.962;2024-03-23T14:32:13;9.40;92.60
5899;DHT22;2975;50.956;6.962;2024-03-23T14:34:39;9.20;92.30
5899;DHT22;2975;50.956;6.962;2024-03-23T14:37:04;9.00;92.40
5899;DHT22;2975;50.956;6.962;2024-03-23T14:39:32;9.00;92.60
5899;DHT22;2975;50.956;6.962;2024-03-23T14:42:00;9.10;93.00
5899;DHT22;2975;50.956;6.962;2024-03-23T14:44:25;9.30;92.90
5899;DHT22;2975;50.956;6.962;2024-03-23T14:46:52;9.50;92.80
5899;DHT22;2975;50.956;6.962;2024-03-23T14:49:18;9.40;93.20
5899;DHT22;2975;50.956;6.962;2024-03-23T14:51:44;9.40;93.30
5899;DHT22;2975;50.956;6.962;2024-03-23T14:54:10;9.10;94.50
5899;DHT22;2975;50.956;6.962;2024-03-23T14:56:36;8.90;95.50
5899;DHT22;2975;50.956;6.962;2024-03-23T14:59:02;8.60;95.40
5899;DHT22;2975;50.956;6.962;2024-03-23T15:01:28;8.20;97.00
5899;DHT22;2975;50.956;6.962;2024-03-23T15:03:55;7.80;99.20
5899;DHT22;2975;50.956;6.962;2024-03-23T15:06:20;7.60;99.90
5899;DHT22;2975;50.956;6.962;2024-03-23T15:08:46;7.50;99.90
5899;DHT22;2975;50.956;6.962;2024-03-23T15:11:11;7.50;99.90
5899;DHT22;2975;50.956;6.962;2024-03-23T15:13:38;7.40;99.90
5899;DHT22;2975;50.956;6.962;2024-03-23T15:16:05;7.40;99.90
5899;DHT22;2975;50.956;6.962;2024-03-23T15:18:31;7.40;99.90
5899;DHT22;2975;50.956;6.962;2024-03-23T15:20:58;7.40;99.90
5899;DHT22;2975;50.956;6.962;2024-03-23T15:23:37;7.50;99.90
5899;DHT22;2975;50.956;6.962;2024-03-23T15:26:03;7.80;99.90
5899;DHT22;2975;50.956;6.962;2024-03-23T15:28:31;8.20;99.90
5899;DHT22;2975;50.956;6.962;2024-03-23T15:31:15;8.50;99.90
5899;DHT22;2975;50.956;6.962;2024-03-23T15:33:41;8.80;99.90
5899;DHT22;2975;50.956;6.962;2024-03-23T15:36:07;8.90;99.90
5899;DHT22;2975;50.956;6.962;2024-03-23T15:38:32;8.80;99.90
5899;DHT22;2975;50.956;6.962;2024-03-23T15:40:58;8.80;99.90
5899;DHT22;2975;50.956;6.962;2024-03-23T15:43:24;8.80;99.90
5899;DHT22;2975;50.956;6.962;2024-03-23T15:45:58;8.90;99.90
5899;DHT22;2975;50.956;6.962;2024-03-23T15:48:30;8.90;99.90
5899;DHT22;2975;50.956;6.962;2024-03-23T15:50:59;8.70;99.90
5899;DHT22;2975;50.956;6.962;2024-03-23T15:53:26;8.60;99.90
5899;DHT22;2975;50.956;6.962;2024-03-23T15:55:58;8.40;99.90
5899;DHT22;2975;50.956;6.962;2024-03-23T15:58:26;8.20;99.90
5899;DHT22;2975;50.956;6.962;2024-03-23T16:01:03;8.00;99.90
5899;DHT22;2975;50.956;6.962;2024-03-23T16:03:30;7.80;99.90
5899;DHT22;2975;50.956;6.962;2024-03-23T16:06:02;7.70;99.90
5899;DHT22;2975;50.956;6.962;2024-03-23T16:08:28;7.60;99.90
5899;DHT22;2975;50.956;6.962;2024-03-23T16:10:54;7.60;99.90
5899;DHT22;2975;50.956;6.962;2024-03-23T16:13:21;7.60;99.90
5899;DHT22;2975;50.956;6.962;2024-03-23T16:16:00;7.70;99.90
5899;DHT22;2975;50.956;6.962;2024-03-23T16:18:27;7.80;99.90
5899;DHT22;2975;50.956;6.962;2024-03-23T16:20:56;7.90;99.90
5899;DHT22;2975;50.956;6.962;2024-03-23T16:23:23;7.90;99.90
5899;DHT22;2975;50.956;6.962;2024-03-23T16:25:49;7.90;99.90
5899;DHT22;2975;50.956;6.962;2024-03-23T16:28:22;7.90;99.90
5899;DHT22;2975;50.956;6.962;2024-03-23T16:30:56;8.20;99.90
5899;DHT22;2975;50.956;6.962;2024-03-23T16:33:23;8.10;99.90
5899;DHT22;2975;50.956;6.962;2024-03-23T16:36:03;8.30;99.90
5899;DHT22;2975;50.956;6.962;2024-03-23T16:38:33;8.50;99.90
5899;DHT22;2975;50.956;6.962;2024-03-23T16:41:03;8.60;99.90
5899;DHT22;2975;50.956;6.962;2024-03-23T16:43:33;8.50;99.90
5899;DHT22;2975;50.956;6.962;2024-03-23T16:46:03;8.40;99.90
5899;DHT22;2975;50.956;6.962;2024-03-23T16:48:31;8.20;99.90
5899;DHT22;2975;50.956;6.962;2024-03-23T16:50:58;8.00;99.90
5899;DHT22;2975;50.956;6.962;2024-03-23T16:53:24;7.80;99.90
5899;DHT22;2975;50.956;6.962;2024-03-23T16:55:56;7.50;99.90
5899;DHT22;2975;50.956;6.962;2024-03-23T16:58:27;7.50;99.90
5899;DHT22;2975;50.956;6.962;2024-03-23T17:00:53;7.40;99.90
5899;DHT22;2975;50.956;6.962;2024-03-23T17:03:22;7.30;99.90
5899;DHT22;2975;50.956;6.962;2024-03-23T17:05:48;7.20;99.90
5899;DHT22;2975;50.956;6.962;2024-03-23T17:08:15;7.10;99.90
5899;DHT22;2975;50.956;6.962;2024-03-23T17:10:40;7.00;99.90
5899;DHT22;2975;50.956;6.962;2024-03-23T17:13:06;7.00;99.90
5899;DHT22;2975;50.956;6.962;2024-03-23T17:15:32;6.90;99.90
5899;DHT22;2975;50.956;6.962;2024-03-23T17:17:58;6.90;99.90
5899;DHT22;2975;50.956;6.962;2024-03-23T17:20:24;6.80;99.90
5899;DHT22;2975;50.956;6.962;2024-03-23T17:22:53;6.70;99.90
5899;DHT22;2975;50.956;6.962;2024-03-23T17:25:19;6.70;99.90
5899;DHT22;2975;50.956;6.962;2024-03-23T17:27:45;6.70;99.90
5899;DHT22;2975;50.956;6.962;2024-03-23T17:30:11;6.70;99.90
5899;DHT22;2975;50.956;6.962;2024-03-23T17:32:37;6.60;99.90
5899;DHT22;2975;50.956;6.962;2024-03-23T17:35:03;6.50;99.90
5899;DHT22;2975;50.956;6.962;2024-03-23T17:37:28;6.50;99.90
5899;DHT22;2975;50.956;6.962;2024-03-23T17:39:54;6.40;99.90
5899;DHT22;2975;50.956;6.962;2024-03-23T17:42:20;6.40;99.90
5899;DHT22;2975;50.956;6.962;2024-03-23T17:44:45;6.30;99.90
5899;DHT22;2975;50.956;6.962;2024-03-23T17:47:11;6.30;99.90
5899;DHT22;2975;50.956;6.962;2024-03-23T17:49:37;6.20;99.90
5899;DHT22;2975;50.956;6.962;2024-03-23T17:52:09;6.30;99.90
5899;DHT22;2975;50.956;6.962;2024-03-23T17:54:37;6.30;99.90
5899;DHT22;2975;50.956;6.962;2024-03-23T17:57:04;6.40;99.90
5899;DHT22;2975;50.956;6.962;2024-03-23T17:59:29;6.40;99.90
5899;DHT22;2975;50.956;6.962;2024-03-23T18:01:55;6.50;99.90
5899;DHT22;2975;50.956;6.962;2024-03-23T18:04:20;6.60;99.90
5899;DHT22;2975;50.956;6.962;2024-03-23T18:06:48;6.60;99.90
5899;DHT22;2975;50.956;6.962;2024-03-23T18:09:19;6.70;99.90
5899;DHT22;2975;50.956;6.962;2024-03-23T18:11:45;6.60;99.90
5899;DHT22;2975;50.956;6.962;2024-03-23T18:14:12;6.70;99.90
5899;DHT22;2975;50.956;6.962;2024-03-23T18:16:38;6.80;99.90
5899;DHT22;2975;50.956;6.962;2024-03-23T18:19:04;6.90;99.90
5899;DHT22;2975;50.956;6.962;2024-03-23T18:21:30;7.00;99.90
5899;DHT22;2975;50.956;6.962;2024-03-23T18:23:55;7.10;99.90
5899;DHT22;2975;50.956;6.962;2024-03-23T18:26:21;7.00;99.90
5899;DHT22;2975;50.956;6.962;2024-03-23T18:28:51;7.40;99.90
5899;DHT22;2975;50.956;6.962;2024-03-23T18:31:19;7.20;99.90
5899;DHT22;2975;50.956;6.962;2024-03-23T18:33:57;7.20;99.90
5899;DHT22;2975;50.956;6.962;2024-03-23T18:36:25;7.10;99.90
5899;DHT22;2975;50.956;6.962;2024-03-23T18:38:50;7.00;99.90
5899;DHT22;2975;50.956;6.962;2024-03-23T18:41:16;7.00;99.90
5899;DHT22;2975;50.956;6.962;2024-03-23T18:43:46;6.80;99.90
5899;DHT22;2975;50.956;6.962;2024-03-23T18:46:12;7.00;99.90
5899;DHT22;2975;50.956;6.962;2024-03-23T18:48:38;6.70;99.90
5899;DHT22;2975;50.956;6.962;2024-03-23T18:51:05;6.60;99.90
5899;DHT22;2975;50.956;6.962;2024-03-23T18:55:57;6.20;99.90
5899;DHT22;2975;50.956;6.962;2024-03-23T18:58:23;6.20;99.90
5899;DHT22;2975;50.956;6.962;2024-03-23T19:00:56;5.90;99.90
5899;DHT22;2975;50.956;6.962;2024-03-23T19:03:23;5.80;99.90
5899;DHT22;2975;50.956;6.962;2024-03-23T19:05:57;5.70;99.90
5899;DHT22;2975;50.956;6.962;2024-03-23T19:08:23;5.60;99.90
5899;DHT22;2975;50.956;6.962;2024-03-23T19:10:56;5.50;99.90
5899;DHT22;2975;50.956;6.962;2024-03-23T19:13:23;5.30;99.90
5899;DHT22;2975;50.956;6.962;2024-03-23T19:15:50;5.20;99.90
5899;DHT22;2975;50.956;6.962;2024-03-23T19:18:16;5.10;99.90
5899;DHT22;2975;50.956;6.962;2024-03-23T19:20:42;5.10;99.90
5899;DHT22;2975;50.956;6.962;2024-03-23T19:23:09;5.00;99.90
5899;DHT22;2975;50.956;6.962;2024-03-23T19:25:35;5.00;99.90
5899;DHT22;2975;50.956;6.962;2024-03-23T19:30:31;4.90;99.90
5899;DHT22;2975;50.956;6.962;2024-03-23T19:32:57;4.80;99.90
5899;DHT22;2975;50.956;6.962;2024-03-23T19:35:27;4.70;99.90
5899;DHT22;2975;50.956;6.962;2024-03-23T19:40:19;4.60;99.90
5899;DHT22;2975;50.956;6.962;2024-03-23T19:42:45;4.60;99.90
5899;DHT22;2975;50.956;6.962;2024-03-23T19:47:39;4.70;99.90
5899;DHT22;2975;50.956;6.962;2024-03-23T19:50:06;4.70;99.90
5899;DHT22;2975;50.956;6.962;2024-03-23T19:52:36;4.10;99.90
5899;DHT22;2975;50.956;6.962;2024-03-23T19:55:03;4.60;99.90
5899;DHT22;2975;50.956;6.962;2024-03-23T19:57:29;4.90;99.90
5899;DHT22;2975;50.956;6.962;2024-03-23T19:59:55;4.50;99.90
5899;DHT22;2975;50.956;6.962;2024-03-23T20:02:21;4.60;99.90
5899;DHT22;2975;50.956;6.962;2024-03-23T20:04:46;4.70;99.90
5899;DHT22;2975;50.956;6.962;2024-03-23T20:07:12;4.60;99.90
5899;DHT22;2975;50.956;6.962;2024-03-23T20:09:38;4.70;99.90
5899;DHT22;2975;50.956;6.962;2024-03-23T20:12:04;4.90;99.90
5899;DHT22;2975;50.956;6.962;2024-03-23T20:14:30;5.10;99.90
5899;DHT22;2975;50.956;6.962;2024-03-23T20:16:57;5.20;99.90
5899;DHT22;2975;50.956;6.962;2024-03-23T20:19:22;5.20;99.90
5899;DHT22;2975;50.956;6.962;2024-03-23T20:21:48;5.30;99.90
5899;DHT22;2975;50.956;6.962;2024-03-23T20:24:14;5.30;99.90
5899;DHT22;2975;50.956;6.962;2024-03-23T20:29:09;6.30;99.90
5899;DHT22;2975;50.956;6.962;2024-03-23T20:34:03;6.60;99.90
5899;DHT22;2975;50.956;6.962;2024-03-23T20:36:30;5.60;99.90
5899;DHT22;2975;50.956;6.962;2024-03-23T20:38:57;6.10;99.90
5899;DHT22;2975;50.956;6.962;2024-03-23T20:41:23;5.90;99.90
5899;DHT22;2975;50.956;6.962;2024-03-23T20:48:48;6.30;99.90
5899;DHT22;2975;50.956;6.962;2024-03-23T20:51:17;6.10;99.90
5899;DHT22;2975;50.956;6.962;2024-03-23T20:53:43;6.10;99.90
5899;DHT22;2975;50.956;6.962;2024-03-23T21:01:07;6.80;99.90
5899;DHT22;2975;50.956;6.962;2024-03-23T21:03:36;6.30;99.90
5899;DHT22;2975;50.956;6.962;2024-03-23T21:06:04;6.40;99.90
5899;DHT22;2975;50.956;6.962;2024-03-23T21:11:00;6.20;99.90
5899;DHT22;2975;50.956;6.962;2024-03-23T21:16:03;6.10;99.90
5899;DHT22;2975;50.956;6.962;2024-03-23T21:18:29;6.20;99.90
5899;DHT22;2975;50.956;6.962;2024-03-23T21:20:56;5.90;99.90
5899;DHT22;2975;50.956;6.962;2024-03-23T21:23:28;6.10;99.90
5899;DHT22;2975;50.956;6.962;2024-03-23T21:38:26;5.60;99.90
5899;DHT22;2975;50.956;6.962;2024-03-23T21:40:59;5.80;99.90
5899;DHT22;2975;50.956;6.962;2024-03-23T21:48:26;5.30;99.90
5899;DHT22;2975;50.956;6.962;2024-03-23T21:55:50;5.10;99.90
5899;DHT22;2975;50.956;6.962;2024-03-23T21:58:17;5.30;99.90
5899;DHT22;2975;50.956;6.962;2024-03-23T22:03:12;5.50;99.90
5899;DHT22;2975;50.956;6.962;2024-03-23T22:10:39;5.60;99.90
5899;DHT22;2975;50.956;6.962;2024-03-23T22:20:33;5.90;99.90
5899;DHT22;2975;50.956;6.962;2024-03-23T22:22:59;6.00;99.90
5899;DHT22;2975;50.956;6.962;2024-03-23T22:27:52;5.70;99.90
5899;DHT22;2975;50.956;6.962;2024-03-23T22:30:18;5.90;99.90
5899;DHT22;2975;50.956;6.962;2024-03-23T22:35:13;5.70;99.90
5899;DHT22;2975;50.956;6.962;2024-03-23T22:40:09;5.70;99.90
5899;DHT22;2975;50.956;6.962;2024-03-23T22:54:58;5.60;99.90
5899;DHT22;2975;50.956;6.962;2024-03-23T22:57:24;5.70;99.90
5899;DHT22;2975;50.956;6.962;2024-03-23T22:59:49;5.80;99.90
5899;DHT22;2975;50.956;6.962;2024-03-23T23:02:15;5.90;99.90
5899;DHT22;2975;50.956;6.962;2024-03-23T23:04:42;5.80;99.90
5899;DHT22;2975;50.956;6.962;2024-03-23T23:09:38;5.70;99.90
5899;DHT22;2975;50.956;6.962;2024-03-23T23:12:04;6.00;99.90
5899;DHT22;2975;50.956;6.962;2024-03-23T23:14:30;5.80;99.90
5899;DHT22;2975;50.956;6.962;2024-03-23T23:21:50;5.70;99.90
5899;DHT22;2975;50.956;6.962;2024-03-23T23:24:16;5.90;99.90
5899;DHT22;2975;50.956;6.962;2024-03-23T23:26:41;5.70;99.90
5899;DHT22;2975;50.956;6.962;2024-03-23T23:34:02;5.40;99.90
5899;DHT22;2975;50.956;6.962;2024-03-23T23:36:28;5.70;99.90
5899;DHT22;2975;50.956;6.962;2024-03-23T23:41:21;5.60;99.90
5899;DHT22;2975;50.956;6.962;2024-03-23T23:48:49;5.60;99.90
5899;DHT22;2975;50.956;6.962;2024-03-23T23:51:15;6.10;99.90
5899;DHT22;2975;50.956;6.962;2024-03-23T23:53:41;5.60;99.90
5899;DHT22;2975;50.956;6.962;2024-03-23T23:58:38;5.70;99.90
